createdAt,value
2019-01-11T06:33:46.517Z,-0.39
2019-01-11T06:36:15.169Z,-0.53
2019-01-11T06:38:43.886Z,-0.63
2019-01-11T06:41:12.648Z,-0.47
2019-01-11T06:44:00.672Z,-0.25
2019-01-11T06:46:29.389Z,-0.15
2019-01-11T07:09:39.943Z,1.93
2019-01-11T07:15:43.642Z,3.13
2019-01-11T07:18:50.050Z,3.12
2019-01-11T07:21:40.622Z,3.23
2019-01-11T07:24:47.224Z,3.37
2019-01-11T07:31:11.935Z,3.73
2019-01-11T07:34:26.513Z,3.85
2019-01-11T07:37:10.755Z,4.33
2019-01-11T07:40:02.390Z,5.02
2019-01-11T07:43:09.014Z,4.52
2019-01-11T07:49:23.204Z,5.24
2019-01-11T07:52:29.629Z,5.21
2019-01-11T07:55:19.710Z,5.44
2019-01-11T07:58:26.024Z,4.96
2019-01-11T08:04:35.159Z,5.33
2019-01-11T08:07:42.560Z,5.37
2019-01-11T08:14:01.891Z,3.67
2019-01-11T08:17:05.778Z,3.05
2019-01-11T08:26:25.978Z,3.51
2019-01-11T08:29:32.824Z,4.38
2019-01-11T08:32:39.198Z,4.65
2019-01-11T08:36:02.100Z,4.57
2019-01-11T08:38:55.381Z,5.65
2019-01-11T08:41:29.223Z,6.55
2019-01-11T08:44:20.602Z,7.17
2019-01-11T08:46:56.757Z,7.46
2019-01-11T08:49:35.376Z,8.03
2019-01-11T08:52:07.196Z,8.81
2019-01-11T08:54:44.949Z,9.44
2019-01-11T09:11:48.792Z,9.49
2019-01-11T09:14:38.177Z,9.49
2019-01-11T09:17:16.636Z,9.75
2019-01-11T09:19:49.187Z,9.60
2019-01-11T09:22:22.878Z,9.68
2019-01-11T09:25:18.494Z,9.69
2019-01-11T09:27:51.544Z,10.05
2019-01-11T10:30:41.435Z,13.33
2019-01-11T10:33:17.306Z,13.40
2019-01-11T10:35:47.616Z,13.84
2019-01-11T10:38:24.012Z,14.01
2019-01-11T10:40:54.282Z,13.34
2019-01-11T10:43:40.772Z,13.25
2019-01-11T10:46:11.051Z,14.26
2019-01-11T10:48:57.908Z,14.42
2019-01-11T10:51:28.302Z,14.36
2019-01-11T10:54:04.489Z,14.19
2019-01-11T10:56:34.835Z,13.06
2019-01-11T11:02:07.848Z,12.19
2019-01-11T11:04:43.951Z,11.84
2019-01-11T11:07:14.467Z,11.92
2019-01-11T11:09:51.039Z,12.60
2019-01-11T11:12:21.404Z,12.75
2019-01-11T11:14:57.603Z,13.25
2019-01-11T11:17:44.126Z,13.32
2019-01-11T11:20:16.703Z,13.74
2019-01-11T11:22:52.953Z,13.70
2019-01-11T11:28:21.382Z,14.67
2019-01-11T11:30:53.168Z,14.59
2019-01-11T11:33:22.044Z,14.48
2019-01-11T11:35:53.556Z,13.86
2019-01-11T11:38:23.742Z,13.17
2019-01-11T11:40:55.566Z,13.70
2019-01-11T11:43:24.299Z,13.81
2019-01-11T11:45:56.037Z,13.36
2019-01-11T11:48:24.978Z,12.83
2019-01-11T11:50:57.314Z,12.66
2019-01-11T11:53:26.209Z,12.53
2019-01-11T11:55:56.018Z,12.76
2019-01-11T11:58:27.956Z,12.96
2019-01-11T12:00:59.199Z,13.09
2019-01-11T12:03:28.068Z,13.29
2019-01-11T12:05:56.915Z,12.99
2019-01-11T12:08:28.613Z,13.27
2019-01-11T12:11:03.400Z,12.74
2019-01-11T12:13:34.615Z,12.79
2019-01-11T12:16:05.791Z,12.16
2019-01-11T12:18:34.659Z,12.81
2019-01-11T12:21:05.741Z,12.96
2019-01-11T12:23:34.544Z,12.78
2019-01-11T12:26:05.879Z,12.98
2019-01-11T12:28:36.096Z,13.49
2019-01-11T12:31:07.985Z,13.80
2019-01-11T12:33:39.915Z,12.82
2019-01-11T12:36:10.282Z,12.63
2019-01-11T12:38:38.969Z,12.35
2019-01-11T12:41:07.724Z,11.92
2019-01-11T12:43:39.428Z,12.32
2019-01-11T12:46:09.752Z,11.75
2019-01-11T12:48:38.388Z,12.01
2019-01-11T12:51:07.104Z,11.91
2019-01-11T12:53:40.025Z,12.35
2019-01-11T12:56:08.691Z,11.89
2019-01-11T12:58:40.567Z,11.44
2019-01-11T13:01:09.410Z,11.26
2019-01-11T13:03:38.021Z,11.53
2019-01-11T13:06:09.586Z,12.04
2019-01-11T13:08:38.218Z,11.81
2019-01-11T13:11:06.885Z,11.95
2019-01-11T13:13:35.504Z,11.63
2019-01-11T13:16:04.240Z,11.42
2019-01-11T13:18:33.204Z,11.21
2019-01-11T13:21:02.007Z,11.02
2019-01-11T13:23:30.847Z,11.23
2019-01-11T13:25:59.721Z,11.56
2019-01-11T13:28:31.299Z,11.48
2019-01-11T13:31:00.063Z,11.47
2019-01-11T13:33:28.913Z,11.23
2019-01-11T13:35:57.647Z,10.72
2019-01-11T13:38:26.410Z,10.25
2019-01-11T13:40:55.138Z,9.81
2019-01-11T13:43:24.054Z,9.81
2019-01-11T13:45:55.408Z,9.78
2019-01-11T13:48:24.224Z,9.52
2019-01-11T13:50:52.897Z,9.44
2019-01-11T13:53:21.786Z,9.10
2019-01-11T13:55:52.002Z,9.36
2019-01-11T13:58:27.491Z,9.04
2019-01-11T14:00:58.889Z,8.55
2019-01-11T14:03:27.522Z,8.58
2019-01-11T14:05:58.931Z,8.25
2019-01-11T14:08:27.717Z,7.84
2019-01-11T14:10:56.373Z,7.50
2019-01-11T14:13:25.060Z,7.27
2019-01-11T14:15:53.717Z,7.44
2019-01-11T14:18:22.364Z,7.44
2019-01-11T14:20:54.034Z,7.03
2019-01-11T14:23:25.440Z,6.99
2019-01-11T14:25:54.052Z,6.87
2019-01-11T14:28:22.605Z,6.60
2019-01-11T14:30:51.241Z,6.82
2019-01-11T14:33:19.950Z,6.84
2019-01-11T14:35:54.279Z,6.27
2019-01-11T14:38:26.007Z,5.69
2019-01-11T14:40:54.546Z,5.11
2019-01-11T14:43:26.237Z,4.63
2019-01-11T14:45:54.860Z,4.23
2019-01-11T14:48:26.330Z,3.59
2019-01-11T14:50:54.966Z,3.17
2019-01-11T14:53:26.935Z,2.74
2019-01-11T14:55:56.239Z,2.49
2019-01-11T14:58:28.885Z,2.19
2019-01-11T15:01:01.423Z,1.99
2019-01-11T15:03:35.358Z,1.71
2019-01-11T15:06:04.433Z,1.51
2019-01-11T15:08:33.112Z,1.37
2019-01-11T16:27:47.316Z,0.32
2019-01-11T16:30:55.741Z,0.29
2019-01-11T16:36:45.411Z,0.06
2019-01-11T16:39:52.713Z,-0.03
2019-01-11T16:42:59.797Z,-0.12
2019-01-11T16:49:15.158Z,-0.34
2019-01-11T16:55:26.039Z,-0.30
2019-01-11T17:01:47.976Z,-0.24
2019-01-11T17:07:37.686Z,-0.29
2019-01-11T19:02:51.811Z,-1.19
2019-01-11T19:08:14.884Z,-1.16
2019-01-11T19:24:36.764Z,-1.08
2019-01-11T19:33:00.904Z,-1.37
2019-01-11T19:39:10.415Z,-1.48
2019-01-11T19:45:20.621Z,-1.49
2019-01-11T19:51:30.061Z,-1.60
2019-01-11T19:54:38.523Z,-1.45
2019-01-11T19:57:47.241Z,-1.37
2019-01-11T20:12:07.146Z,-1.25
2019-01-11T20:41:10.985Z,-1.75
2019-01-11T20:47:36.668Z,-1.87
2019-01-11T20:53:48.483Z,-1.73
2019-01-11T20:56:37.979Z,-1.63
2019-01-11T20:59:45.103Z,-1.55
2019-01-11T21:05:52.841Z,-1.30
2019-01-11T21:12:01.013Z,-1.28
2019-01-11T21:18:14.396Z,-1.18
2019-01-11T21:21:03.656Z,-1.13
2019-01-11T21:24:10.796Z,-1.09
2019-01-11T21:27:00.079Z,-1.04
2019-01-11T21:30:07.203Z,-1.01
2019-01-11T21:35:57.299Z,-1.03
2019-01-11T21:39:05.694Z,-0.97
2019-01-11T21:48:33.735Z,-1.07
2019-01-11T21:55:01.321Z,-1.21
2019-01-11T22:03:58.447Z,-1.11
2019-01-11T22:06:27.079Z,-1.14
2019-01-11T22:08:55.719Z,-1.09
2019-01-11T22:11:24.362Z,-1.04
2019-01-11T22:13:53.004Z,-1.09
2019-01-11T22:16:21.755Z,-0.99
2019-01-11T22:18:50.325Z,-0.94
2019-01-11T22:21:18.970Z,-0.99
2019-01-11T22:23:47.604Z,-1.04
2019-01-11T22:26:16.235Z,-0.98
2019-01-11T22:28:44.759Z,-0.92
2019-01-11T22:31:13.387Z,-0.84
2019-01-11T22:34:01.157Z,-0.74
2019-01-11T22:36:29.792Z,-0.65
2019-01-11T22:38:58.465Z,-0.57
2019-01-11T22:41:27.089Z,-0.50
2019-01-11T22:47:47.187Z,-0.42
2019-01-11T22:50:54.293Z,-0.39
2019-01-11T23:03:19.672Z,-0.30
2019-01-11T23:09:41.024Z,-0.33
2019-01-11T23:12:49.468Z,-0.35
2019-01-11T23:15:56.536Z,-0.34
2019-01-11T23:18:45.801Z,-0.33
2019-01-11T23:28:11.320Z,-0.28
2019-01-11T23:31:19.772Z,-0.30
2019-01-11T23:34:26.861Z,-0.32
2019-01-11T23:37:16.195Z,-0.26
2019-01-11T23:40:27.254Z,-0.24
2019-01-11T23:46:43.526Z,-0.24
2019-01-11T23:52:49.730Z,-0.31
2019-01-11T23:55:58.142Z,-0.33
2019-01-11T23:58:46.221Z,-0.31
